Terminal Aerodrome Forecast
Issued by NWS

Home | Current Version | Previous Version | Text Only | Print | Product List | Glossary On
Versions: 1 2 3 4 5 6 7 8 9 10 11 12 13 14 15 16
000
FTUS43 KDTX 251728
TAFDET
TAF
KDET 251728Z 2518/2618 06011KT 5SM -SHRA OVC007
     FM252100 08007KT 6SM BR BKN010 OVC030
     FM260400 08007KT 4SM BR OVC008
     FM260800 09007KT 2SM BR OVC006
     FM261500 11008KT 5SM BR BKN010
     FM261700 13010KT 5SM -SHRA SCT012 OVC022=

USA.gov is the U.S. government's official web portal to all federal, state and local government web resources and services.